sensor_id;sensor_type;location;lat;lon;timestamp;pressure;altitude;pressure_sealevel;temperature;humidity
59190;BME280;50749;51.636;4.948;2023-02-28T00:00:50;103182.38;;;17.16;47.49
59190;BME280;50749;51.636;4.948;2023-02-28T00:03:18;103176.88;;;17.16;47.46
59190;BME280;50749;51.636;4.948;2023-02-28T00:05:44;103175.25;;;17.15;47.35
59190;BME280;50749;51.636;4.948;2023-02-28T00:08:10;103181.06;;;17.13;47.58
59190;BME280;50749;51.636;4.948;2023-02-28T00:10:36;103174.69;;;17.13;47.52
59190;BME280;50749;51.636;4.948;2023-02-28T00:13:04;103173.06;;;17.12;47.09
59190;BME280;50749;51.636;4.948;2023-02-28T00:15:32;103171.41;;;17.11;47.37
59190;BME280;50749;51.636;4.948;2023-02-28T00:17:57;103179.69;;;17.11;47.75
59190;BME280;50749;51.636;4.948;2023-02-28T00:20:24;103171.69;;;17.09;47.58
59190;BME280;50749;51.636;4.948;2023-02-28T00:22:52;103181.13;;;17.08;47.31
59190;BME280;50749;51.636;4.948;2023-02-28T00:25:21;103173.94;;;17.07;47.17
59190;BME280;50749;51.636;4.948;2023-02-28T00:27:47;103177.00;;;17.05;46.98
59190;BME280;50749;51.636;4.948;2023-02-28T00:30:16;103171.47;;;17.05;47.07
59190;BME280;50749;51.636;4.948;2023-02-28T00:32:43;103174.53;;;17.04;47.25
59190;BME280;50749;51.636;4.948;2023-02-28T00:35:09;103162.94;;;17.02;47.47
59190;BME280;50749;51.636;4.948;2023-02-28T00:37:35;103167.34;;;17.03;47.15
59190;BME280;50749;51.636;4.948;2023-02-28T00:40:02;103165.19;;;17.00;47.67
59190;BME280;50749;51.636;4.948;2023-02-28T00:42:30;103167.13;;;16.99;47.38
59190;BME280;50749;51.636;4.948;2023-02-28T00:44:56;103167.13;;;16.99;47.39
59190;BME280;50749;51.636;4.948;2023-02-28T00:47:22;103169.06;;;16.99;46.83
59190;BME280;50749;51.636;4.948;2023-02-28T00:49:48;103169.34;;;16.97;47.12
59190;BME280;50749;51.636;4.948;2023-02-28T00:52:13;103170.47;;;16.96;47.28
59190;BME280;50749;51.636;4.948;2023-02-28T00:54:39;103164.13;;;16.96;47.36
59190;BME280;50749;51.636;4.948;2023-02-28T00:57:05;103158.88;;;16.94;47.21
59190;BME280;50749;51.636;4.948;2023-02-28T00:59:31;103157.25;;;16.93;47.27
59190;BME280;50749;51.636;4.948;2023-02-28T01:01:57;103159.19;;;16.93;46.99
59190;BME280;50749;51.636;4.948;2023-02-28T01:04:23;103164.19;;;16.90;47.05
59190;BME280;50749;51.636;4.948;2023-02-28T01:06:48;103163.38;;;16.90;47.32
59190;BME280;50749;51.636;4.948;2023-02-28T01:09:14;103162.84;;;16.88;47.08
59190;BME280;50749;51.636;4.948;2023-02-28T01:11:40;103170.00;;;16.89;47.29
59190;BME280;50749;51.636;4.948;2023-02-28T01:14:08;103174.19;;;16.86;47.19
59190;BME280;50749;51.636;4.948;2023-02-28T01:16:34;103163.97;;;16.87;46.73
59190;BME280;50749;51.636;4.948;2023-02-28T01:19:00;103171.44;;;16.86;47.40
59190;BME280;50749;51.636;4.948;2023-02-28T01:21:25;103181.63;;;16.86;47.30
59190;BME280;50749;51.636;4.948;2023-02-28T01:23:52;103171.72;;;16.85;47.13
59190;BME280;50749;51.636;4.948;2023-02-28T01:26:20;103178.31;;;16.84;46.81
59190;BME280;50749;51.636;4.948;2023-02-28T01:28:47;103170.03;;;16.84;47.21
59190;BME280;50749;51.636;4.948;2023-02-28T01:31:13;103168.41;;;16.83;46.99
59190;BME280;50749;51.636;4.948;2023-02-28T01:33:40;103161.22;;;16.82;47.27
59190;BME280;50749;51.636;4.948;2023-02-28T01:36:10;103162.03;;;16.82;47.06
59190;BME280;50749;51.636;4.948;2023-02-28T01:38:36;103171.47;;;16.81;47.44
59190;BME280;50749;51.636;4.948;2023-02-28T01:41:03;103156.28;;;16.79;47.60
59190;BME280;50749;51.636;4.948;2023-02-28T01:43:31;103172.84;;;16.79;47.09
59190;BME280;50749;51.636;4.948;2023-02-28T01:45:58;103175.63;;;16.79;47.30
59190;BME280;50749;51.636;4.948;2023-02-28T01:48:27;103174.28;;;16.76;47.39
59190;BME280;50749;51.636;4.948;2023-02-28T01:50:58;103171.19;;;16.78;46.75
59190;BME280;50749;51.636;4.948;2023-02-28T01:53:31;103178.97;;;16.76;46.88
59190;BME280;50749;51.636;4.948;2023-02-28T01:55:57;103177.34;;;16.75;46.67
59190;BME280;50749;51.636;4.948;2023-02-28T01:58:24;103178.16;;;16.75;46.97
59190;BME280;50749;51.636;4.948;2023-02-28T02:00:50;103170.16;;;16.74;47.24
59190;BME280;50749;51.636;4.948;2023-02-28T02:03:18;103165.75;;;16.72;46.99
59190;BME280;50749;51.636;4.948;2023-02-28T02:05:45;103170.16;;;16.74;47.03
59190;BME280;50749;51.636;4.948;2023-02-28T02:08:25;103173.22;;;16.72;47.19
59190;BME280;50749;51.636;4.948;2023-02-28T02:10:57;103164.09;;;16.71;46.57
59190;BME280;50749;51.636;4.948;2023-02-28T02:18:57;103156.41;;;16.68;46.93
59190;BME280;50749;51.636;4.948;2023-02-28T02:24:49;103161.94;;;16.68;47.01
59190;BME280;50749;51.636;4.948;2023-02-28T02:27:32;103154.75;;;16.67;47.08
59190;BME280;50749;51.636;4.948;2023-02-28T02:30:33;103155.88;;;16.66;47.25
59190;BME280;50749;51.636;4.948;2023-02-28T02:36:12;103148.19;;;16.63;47.04
59190;BME280;50749;51.636;4.948;2023-02-28T02:41:34;103144.91;;;16.61;46.85
59190;BME280;50749;51.636;4.948;2023-02-28T02:44:10;103147.66;;;16.61;47.41
59190;BME280;50749;51.636;4.948;2023-02-28T02:46:41;103137.72;;;16.60;47.18
59190;BME280;50749;51.636;4.948;2023-02-28T02:49:13;103143.25;;;16.60;46.68
59190;BME280;50749;51.636;4.948;2023-02-28T02:51:42;103149.88;;;16.59;47.19
59190;BME280;50749;51.636;4.948;2023-02-28T02:56:46;103139.13;;;16.58;47.01
59190;BME280;50749;51.636;4.948;2023-02-28T02:59:17;103146.56;;;16.57;47.20
59190;BME280;50749;51.636;4.948;2023-02-28T03:01:56;103142.19;;;16.56;46.92
59190;BME280;50749;51.636;4.948;2023-02-28T03:04:25;103146.06;;;16.55;47.25
59190;BME280;50749;51.636;4.948;2023-02-28T03:06:53;103146.88;;;16.56;47.22
59190;BME280;50749;51.636;4.948;2023-02-28T03:09:23;103152.69;;;16.54;47.12
59190;BME280;50749;51.636;4.948;2023-02-28T03:11:51;103146.06;;;16.55;47.24
59190;BME280;50749;51.636;4.948;2023-02-28T03:17:00;103144.41;;;16.54;47.00
59190;BME280;50749;51.636;4.948;2023-02-28T03:28:10;103145.81;;;16.51;46.53
59190;BME280;50749;51.636;4.948;2023-02-28T03:33:23;103150.53;;;16.51;47.04
59190;BME280;50749;51.636;4.948;2023-02-28T03:35:57;103152.75;;;16.49;47.08
59190;BME280;50749;51.636;4.948;2023-02-28T03:38:34;103148.88;;;16.50;47.00
59190;BME280;50749;51.636;4.948;2023-02-28T03:43:36;103139.22;;;16.47;47.10
59190;BME280;50749;51.636;4.948;2023-02-28T03:46:08;103146.41;;;16.48;47.26
59190;BME280;50749;51.636;4.948;2023-02-28T03:48:45;103154.69;;;16.48;47.50
59190;BME280;50749;51.636;4.948;2023-02-28T03:51:16;103164.06;;;16.47;47.41
59190;BME280;50749;51.636;4.948;2023-02-28T03:54:12;103158.25;;;16.49;47.62
59190;BME280;50749;51.636;4.948;2023-02-28T03:56:45;103149.69;;;16.50;47.28
59190;BME280;50749;51.636;4.948;2023-02-28T03:59:28;103161.53;;;16.56;46.67
59190;BME280;50749;51.636;4.948;2023-02-28T04:01:57;103154.28;;;16.60;46.67
59190;BME280;50749;51.636;4.948;2023-02-28T04:04:24;103153.94;;;16.67;45.96
59190;BME280;50749;51.636;4.948;2023-02-28T04:06:51;103151.94;;;16.72;45.70
59190;BME280;50749;51.636;4.948;2023-02-28T04:09:17;103148.53;;;16.81;45.87
59190;BME280;50749;51.636;4.948;2023-02-28T04:11:49;103145.97;;;16.89;46.32
59190;BME280;50749;51.636;4.948;2023-02-28T04:14:17;103151.97;;;16.97;46.75
59190;BME280;50749;51.636;4.948;2023-02-28T04:16:43;103150.19;;;17.06;46.75
59190;BME280;50749;51.636;4.948;2023-02-28T04:19:11;103149.81;;;17.13;46.76
59190;BME280;50749;51.636;4.948;2023-02-28T04:21:40;103150.59;;;17.18;47.30
59190;BME280;50749;51.636;4.948;2023-02-28T04:24:12;103147.47;;;17.25;47.34
59190;BME280;50749;51.636;4.948;2023-02-28T04:26:43;103149.00;;;17.31;47.07
59190;BME280;50749;51.636;4.948;2023-02-28T04:29:12;103147.31;;;17.35;47.22
59190;BME280;50749;51.636;4.948;2023-02-28T04:31:39;103156.34;;;17.41;47.39
59190;BME280;50749;51.636;4.948;2023-02-28T04:34:05;103151.03;;;17.44;47.65
59190;BME280;50749;51.636;4.948;2023-02-28T04:36:31;103152.63;;;17.51;47.58
59190;BME280;50749;51.636;4.948;2023-02-28T04:38:57;103152.53;;;17.56;47.39
59190;BME280;50749;51.636;4.948;2023-02-28T04:41:23;103160.47;;;17.62;47.49
59190;BME280;50749;51.636;4.948;2023-02-28T04:43:51;103163.94;;;17.68;47.58
59190;BME280;50749;51.636;4.948;2023-02-28T04:46:18;103172.19;;;17.73;47.08
59190;BME280;50749;51.636;4.948;2023-02-28T04:48:44;103166.56;;;17.78;47.30
59190;BME280;50749;51.636;4.948;2023-02-28T04:51:12;103165.66;;;17.83;47.29
59190;BME280;50749;51.636;4.948;2023-02-28T04:53:40;103177.81;;;17.87;47.06
59190;BME280;50749;51.636;4.948;2023-02-28T04:56:07;103172.50;;;17.91;47.49
59190;BME280;50749;51.636;4.948;2023-02-28T04:58:33;103170.75;;;17.95;47.38
59190;BME280;50749;51.636;4.948;2023-02-28T05:01:28;103178.16;;;17.99;47.16
59190;BME280;50749;51.636;4.948;2023-02-28T05:03:54;103182.25;;;18.02;47.18
59190;BME280;50749;51.636;4.948;2023-02-28T05:06:21;103191.09;;;18.04;46.87
59190;BME280;50749;51.636;4.948;2023-02-28T05:08:49;103176.13;;;18.05;47.08
59190;BME280;50749;51.636;4.948;2023-02-28T05:11:21;103187.75;;;18.07;46.94
59190;BME280;50749;51.636;4.948;2023-02-28T05:13:49;103187.75;;;18.07;46.74
59190;BME280;50749;51.636;4.948;2023-02-28T05:16:16;103192.13;;;18.08;47.01
59190;BME280;50749;51.636;4.948;2023-02-28T05:18:42;103179.66;;;18.11;47.23
59190;BME280;50749;51.636;4.948;2023-02-28T05:21:28;103192.84;;;18.14;47.12
59190;BME280;50749;51.636;4.948;2023-02-28T05:23:55;103199.75;;;18.16;47.13
59190;BME280;50749;51.636;4.948;2023-02-28T05:26:21;103188.06;;;18.19;47.00
59190;BME280;50749;51.636;4.948;2023-02-28T05:28:47;103186.63;;;18.22;46.94
59190;BME280;50749;51.636;4.948;2023-02-28T05:31:13;103189.94;;;18.24;46.82
59190;BME280;50749;51.636;4.948;2023-02-28T05:33:40;103195.69;;;18.28;47.17
59190;BME280;50749;51.636;4.948;2023-02-28T05:36:06;103191.78;;;18.29;46.98
59190;BME280;50749;51.636;4.948;2023-02-28T05:38:32;103187.59;;;18.31;47.56
59190;BME280;50749;51.636;4.948;2023-02-28T05:40:58;103188.19;;;18.28;47.37
59190;BME280;50749;51.636;4.948;2023-02-28T05:43:24;103204.28;;;18.26;47.11
59190;BME280;50749;51.636;4.948;2023-02-28T05:45:50;103193.53;;;18.25;47.46
59190;BME280;50749;51.636;4.948;2023-02-28T05:48:16;103202.13;;;18.23;47.66
59190;BME280;50749;51.636;4.948;2023-02-28T05:50:43;103198.00;;;18.20;47.42
59190;BME280;50749;51.636;4.948;2023-02-28T05:53:11;103205.88;;;18.13;46.55
59190;BME280;50749;51.636;4.948;2023-02-28T05:55:37;103200.13;;;18.10;46.59
59190;BME280;50749;51.636;4.948;2023-02-28T05:58:03;103194.31;;;18.11;47.89
59190;BME280;50749;51.636;4.948;2023-02-28T06:00:29;103184.88;;;18.12;47.98
59190;BME280;50749;51.636;4.948;2023-02-28T06:02:55;103190.09;;;18.14;48.19
59190;BME280;50749;51.636;4.948;2023-02-28T06:05:27;103182.94;;;18.13;47.72
59190;BME280;50749;51.636;4.948;2023-02-28T06:07:53;103188.16;;;18.14;47.33
59190;BME280;50749;51.636;4.948;2023-02-28T06:10:19;103187.03;;;18.15;47.53
59190;BME280;50749;51.636;4.948;2023-02-28T06:12:45;103189.78;;;18.15;47.69
59190;BME280;50749;51.636;4.948;2023-02-28T06:15:12;103183.94;;;18.17;47.60
59190;BME280;50749;51.636;4.948;2023-02-28T06:17:40;103190.34;;;18.17;47.67
59190;BME280;50749;51.636;4.948;2023-02-28T06:20:07;103186.72;;;18.17;47.71
59190;BME280;50749;51.636;4.948;2023-02-28T06:22:35;103183.13;;;18.16;47.54
59190;BME280;50749;51.636;4.948;2023-02-28T06:25:01;103170.41;;;18.15;47.17
59190;BME280;50749;51.636;4.948;2023-02-28T06:27:27;103182.31;;;18.16;47.13
59190;BME280;50749;51.636;4.948;2023-02-28T06:29:54;103177.59;;;18.16;47.12
59190;BME280;50749;51.636;4.948;2023-02-28T06:32:21;103187.03;;;18.15;47.61
59190;BME280;50749;51.636;4.948;2023-02-28T06:34:47;103187.88;;;18.16;47.60
59190;BME280;50749;51.636;4.948;2023-02-28T06:37:13;103181.47;;;18.15;47.82
59190;BME280;50749;51.636;4.948;2023-02-28T06:39:39;103191.75;;;18.15;47.75
59190;BME280;50749;51.636;4.948;2023-02-28T06:42:05;103187.03;;;18.15;47.63
59190;BME280;50749;51.636;4.948;2023-02-28T06:44:31;103176.78;;;18.16;47.78
59190;BME280;50749;51.636;4.948;2023-02-28T06:47:05;103176.50;;;18.17;47.74
59190;BME280;50749;51.636;4.948;2023-02-28T06:49:33;103185.59;;;18.18;47.48
59190;BME280;50749;51.636;4.948;2023-02-28T06:51:59;103186.41;;;18.18;47.65
59190;BME280;50749;51.636;4.948;2023-02-28T06:54:25;103178.13;;;18.18;48.12
59190;BME280;50749;51.636;4.948;2023-02-28T06:56:51;103183.34;;;18.20;47.83
59190;BME280;50749;51.636;4.948;2023-02-28T06:59:18;103187.25;;;18.19;47.94
59190;BME280;50749;51.636;4.948;2023-02-28T07:01:45;103189.19;;;18.18;47.07
59190;BME280;50749;51.636;4.948;2023-02-28T07:04:10;103181.72;;;18.19;47.72
59190;BME280;50749;51.636;4.948;2023-02-28T07:06:36;103199.16;;;18.19;47.59
59190;BME280;50749;51.636;4.948;2023-02-28T07:09:02;103203.53;;;18.20;48.26
59190;BME280;50749;51.636;4.948;2023-02-28T07:11:29;103202.44;;;18.22;47.58
59190;BME280;50749;51.636;4.948;2023-02-28T07:13:55;103208.28;;;18.20;47.55
59190;BME280;50749;51.636;4.948;2023-02-28T07:16:23;103203.03;;;18.18;47.22
59190;BME280;50749;51.636;4.948;2023-02-28T07:18:51;103205.28;;;18.16;47.20
59190;BME280;50749;51.636;4.948;2023-02-28T07:21:17;103210.81;;;18.16;47.44
59190;BME280;50749;51.636;4.948;2023-02-28T07:23:43;103205.59;;;18.15;47.29
59190;BME280;50749;51.636;4.948;2023-02-28T07:26:12;103208.16;;;18.11;47.62
59190;BME280;50749;51.636;4.948;2023-02-28T07:28:41;103206.50;;;18.10;47.09
59190;BME280;50749;51.636;4.948;2023-02-28T07:31:08;103206.78;;;18.09;47.62
59190;BME280;50749;51.636;4.948;2023-02-28T07:33:35;103214.56;;;18.07;47.63
59190;BME280;50749;51.636;4.948;2023-02-28T07:36:10;103216.53;;;18.06;47.91
59190;BME280;50749;51.636;4.948;2023-02-28T07:38:41;103219.91;;;18.03;47.31
59190;BME280;50749;51.636;4.948;2023-02-28T07:41:08;103218.25;;;18.02;47.34
59190;BME280;50749;51.636;4.948;2023-02-28T07:43:34;103211.38;;;17.99;47.84
59190;BME280;50749;51.636;4.948;2023-02-28T07:46:03;103216.91;;;17.99;48.20
59190;BME280;50749;51.636;4.948;2023-02-28T07:48:29;103218.31;;;17.97;47.98
59190;BME280;50749;51.636;4.948;2023-02-28T07:50:57;103215.56;;;17.97;48.39
59190;BME280;50749;51.636;4.948;2023-02-28T07:53:23;103223.03;;;17.96;47.76
59190;BME280;50749;51.636;4.948;2023-02-28T07:55:49;103213.41;;;17.94;48.17
59190;BME280;50749;51.636;4.948;2023-02-28T07:58:14;103215.34;;;17.93;47.40
59190;BME280;50749;51.636;4.948;2023-02-28T08:00:40;103224.78;;;17.92;47.57
59190;BME280;50749;51.636;4.948;2023-02-28T08:03:07;103221.47;;;17.90;47.41
59190;BME280;50749;51.636;4.948;2023-02-28T08:05:40;103221.78;;;17.89;47.41
59190;BME280;50749;51.636;4.948;2023-02-28T08:08:07;103230.13;;;17.83;47.79
59190;BME280;50749;51.636;4.948;2023-02-28T08:10:34;103226.25;;;17.85;47.69
59190;BME280;50749;51.636;4.948;2023-02-28T08:12:59;103229.31;;;17.83;47.72
59190;BME280;50749;51.636;4.948;2023-02-28T08:15:25;103235.13;;;17.81;47.48
59190;BME280;50749;51.636;4.948;2023-02-28T08:17:51;103218.00;;;17.79;47.64
59190;BME280;50749;51.636;4.948;2023-02-28T08:20:17;103228.28;;;17.79;47.69
59190;BME280;50749;51.636;4.948;2023-02-28T08:22:43;103224.16;;;17.76;47.11
59190;BME280;50749;51.636;4.948;2023-02-28T08:25:09;103231.63;;;17.76;47.07
59190;BME280;50749;51.636;4.948;2023-02-28T08:27:35;103238.28;;;17.75;47.08
59190;BME280;50749;51.636;4.948;2023-02-28T08:30:02;103236.66;;;17.74;47.38
59190;BME280;50749;51.636;4.948;2023-02-28T08:32:28;103225.38;;;17.70;46.68
59190;BME280;50749;51.636;4.948;2023-02-28T08:34:54;103215.91;;;17.71;46.58
59190;BME280;50749;51.636;4.948;2023-02-28T08:37:20;103220.63;;;17.71;46.93
59190;BME280;50749;51.636;4.948;2023-02-28T08:39:46;103222.88;;;17.69;47.01
59190;BME280;50749;51.636;4.948;2023-02-28T08:42:12;103223.72;;;17.69;46.65
59190;BME280;50749;51.636;4.948;2023-02-28T08:44:38;103225.94;;;17.67;46.41
59190;BME280;50749;51.636;4.948;2023-02-28T08:47:04;103221.53;;;17.66;46.23
59190;BME280;50749;51.636;4.948;2023-02-28T08:49:31;103223.78;;;17.64;46.55
59190;BME280;50749;51.636;4.948;2023-02-28T08:51:56;103222.63;;;17.65;46.08
59190;BME280;50749;51.636;4.948;2023-02-28T08:54:23;103217.94;;;17.66;45.94
59190;BME280;50749;51.636;4.948;2023-02-28T08:56:49;103207.09;;;17.69;45.50
59190;BME280;50749;51.636;4.948;2023-02-28T08:59:15;103206.50;;;17.72;45.73
59190;BME280;50749;51.636;4.948;2023-02-28T09:01:41;103216.44;;;17.73;45.66
59190;BME280;50749;51.636;4.948;2023-02-28T09:04:09;103215.31;;;17.74;45.94
59190;BME280;50749;51.636;4.948;2023-02-28T09:06:37;103228.06;;;17.75;45.56
59190;BME280;50749;51.636;4.948;2023-02-28T09:09:03;103226.41;;;17.74;45.71
59190;BME280;50749;51.636;4.948;2023-02-28T09:11:32;103226.41;;;17.74;45.78
59190;BME280;50749;51.636;4.948;2023-02-28T09:13:58;103228.88;;;17.76;45.56
59190;BME280;50749;51.636;4.948;2023-02-28T09:16:30;103228.88;;;17.76;45.16
59190;BME280;50749;51.636;4.948;2023-02-28T09:18:56;103216.13;;;17.75;45.45
59190;BME280;50749;51.636;4.948;2023-02-28T09:21:22;103220.88;;;17.74;45.61
59190;BME280;50749;51.636;4.948;2023-02-28T09:23:49;103228.34;;;17.74;45.63
59190;BME280;50749;51.636;4.948;2023-02-28T09:26:24;103228.66;;;17.72;45.17
59190;BME280;50749;51.636;4.948;2023-02-28T09:28:51;103222.03;;;17.68;45.03
59190;BME280;50749;51.636;4.948;2023-02-28T09:31:21;103218.97;;;17.70;44.48
59190;BME280;50749;51.636;4.948;2023-02-28T09:33:52;103229.53;;;17.68;44.62
59190;BME280;50749;51.636;4.948;2023-02-28T09:36:18;103229.81;;;17.66;44.86
59190;BME280;50749;51.636;4.948;2023-02-28T09:38:44;103232.59;;;17.66;45.00
59190;BME280;50749;51.636;4.948;2023-02-28T09:41:21;103226.53;;;17.64;45.31
59190;BME280;50749;51.636;4.948;2023-02-28T09:43:55;103222.13;;;17.63;45.15
59190;BME280;50749;51.636;4.948;2023-02-28T09:46:28;103224.88;;;17.63;44.67
59190;BME280;50749;51.636;4.948;2023-02-28T09:48:55;103222.03;;;17.68;44.58
59190;BME280;50749;51.636;4.948;2023-02-28T09:53:54;103224.75;;;17.73;43.56
59190;BME280;50749;51.636;4.948;2023-02-28T09:56:36;103224.16;;;17.76;43.35
59190;BME280;50749;51.636;4.948;2023-02-28T10:05:02;103221.53;;;17.85;43.23
59190;BME280;50749;51.636;4.948;2023-02-28T10:10:26;103222.84;;;17.93;43.98
59190;BME280;50749;51.636;4.948;2023-02-28T10:12:56;103218.31;;;17.97;44.29
59190;BME280;50749;51.636;4.948;2023-02-28T10:15:25;103220.78;;;17.98;43.71
59190;BME280;50749;51.636;4.948;2023-02-28T10:17:58;103218.56;;;18.00;42.99
59190;BME280;50749;51.636;4.948;2023-02-28T10:20:25;103218.25;;;18.02;43.19
59190;BME280;50749;51.636;4.948;2023-02-28T10:23:20;103216.00;;;18.04;42.65
59190;BME280;50749;51.636;4.948;2023-02-28T10:26:13;103214.88;;;18.05;43.38
59190;BME280;50749;51.636;4.948;2023-02-28T10:28:41;103219.59;;;18.05;42.99
59190;BME280;50749;51.636;4.948;2023-02-28T10:31:17;103208.53;;;18.05;42.57
59190;BME280;50749;51.636;4.948;2023-02-28T10:33:43;103210.47;;;18.04;42.83
59190;BME280;50749;51.636;4.948;2023-02-28T10:36:15;103205.75;;;18.05;42.61
59190;BME280;50749;51.636;4.948;2023-02-28T10:38:43;103203.50;;;18.07;42.67
59190;BME280;50749;51.636;4.948;2023-02-28T10:41:16;103207.41;;;18.06;42.42
59190;BME280;50749;51.636;4.948;2023-02-28T10:43:43;103208.22;;;18.06;42.28
59190;BME280;50749;51.636;4.948;2023-02-28T10:51:25;103200.44;;;18.08;42.12
59190;BME280;50749;51.636;4.948;2023-02-28T10:53:59;103202.38;;;18.08;41.83
59190;BME280;50749;51.636;4.948;2023-02-28T10:56:26;103191.63;;;18.06;41.91
59190;BME280;50749;51.636;4.948;2023-02-28T10:59:26;103197.16;;;18.06;41.25
59190;BME280;50749;51.636;4.948;2023-02-28T11:01:52;103194.38;;;18.06;41.44
59190;BME280;50749;51.636;4.948;2023-02-28T11:06:56;103188.03;;;18.06;41.23
59190;BME280;50749;51.636;4.948;2023-02-28T11:09:36;103193.56;;;18.06;41.66
59190;BME280;50749;51.636;4.948;2023-02-28T11:12:17;103184.13;;;18.07;41.89
59190;BME280;50749;51.636;4.948;2023-02-28T11:14:51;103170.81;;;18.09;41.92
59190;BME280;50749;51.636;4.948;2023-02-28T11:17:31;103177.19;;;18.09;41.83
59190;BME280;50749;51.636;4.948;2023-02-28T11:20:05;103168.38;;;18.07;42.08
59190;BME280;50749;51.636;4.948;2023-02-28T11:22:37;103170.00;;;18.08;41.55
59190;BME280;50749;51.636;4.948;2023-02-28T11:25:12;103176.66;;;18.07;41.49
59190;BME280;50749;51.636;4.948;2023-02-28T11:27:56;103169.47;;;18.06;42.29
59190;BME280;50749;51.636;4.948;2023-02-28T11:32:53;103165.59;;;18.07;42.59
59190;BME280;50749;51.636;4.948;2023-02-28T11:35:39;103164.75;;;18.07;43.03
59190;BME280;50749;51.636;4.948;2023-02-28T11:38:11;103165.06;;;18.05;43.00
59190;BME280;50749;51.636;4.948;2023-02-28T11:43:45;103165.66;;;18.02;42.58
59190;BME280;50749;51.636;4.948;2023-02-28T11:46:20;103164.03;;;18.01;42.91
59190;BME280;50749;51.636;4.948;2023-02-28T12:02:55;103151.19;;;17.91;42.97
59190;BME280;50749;51.636;4.948;2023-02-28T12:05:33;103142.38;;;17.89;42.67
59190;BME280;50749;51.636;4.948;2023-02-28T12:08:20;103144.63;;;17.87;42.74
59190;BME280;50749;51.636;4.948;2023-02-28T12:13:39;103144.03;;;17.85;42.71
59190;BME280;50749;51.636;4.948;2023-02-28T12:19:07;103141.06;;;17.81;42.45
59190;BME280;50749;51.636;4.948;2023-02-28T12:27:11;103122.91;;;17.75;42.16
59190;BME280;50749;51.636;4.948;2023-02-28T12:29:47;103122.91;;;17.75;42.84
59190;BME280;50749;51.636;4.948;2023-02-28T12:32:16;103123.53;;;17.72;42.79
59190;BME280;50749;51.636;4.948;2023-02-28T12:34:48;103130.16;;;17.71;42.29
59190;BME280;50749;51.636;4.948;2023-02-28T12:37:21;103117.47;;;17.70;42.09
59190;BME280;50749;51.636;4.948;2023-02-28T12:39:54;103121.66;;;17.68;42.75
59190;BME280;50749;51.636;4.948;2023-02-28T12:42:27;103118.38;;;17.66;41.65
59190;BME280;50749;51.636;4.948;2023-02-28T12:45:08;103113.66;;;17.66;41.86
59190;BME280;50749;51.636;4.948;2023-02-28T12:47:38;103110.38;;;17.64;42.02
59190;BME280;50749;51.636;4.948;2023-02-28T12:50:07;103116.19;;;17.62;41.85
59190;BME280;50749;51.636;4.948;2023-02-28T12:52:59;103118.16;;;17.62;42.29
59190;BME280;50749;51.636;4.948;2023-02-28T12:58:13;103108.28;;;17.56;41.64
59190;BME280;50749;51.636;4.948;2023-02-28T13:09:11;103087.91;;;17.52;41.56
59190;BME280;50749;51.636;4.948;2023-02-28T13:11:41;103097.31;;;17.51;41.67
59190;BME280;50749;51.636;4.948;2023-02-28T13:14:22;103087.34;;;17.50;41.97
59190;BME280;50749;51.636;4.948;2023-02-28T13:19:21;103086.31;;;17.45;41.31
59190;BME280;50749;51.636;4.948;2023-02-28T13:21:50;103070.84;;;17.44;41.24
59190;BME280;50749;51.636;4.948;2023-02-28T13:29:39;103075.03;;;17.42;41.26
59190;BME280;50749;51.636;4.948;2023-02-28T13:34:38;103070.94;;;17.39;41.68
59190;BME280;50749;51.636;4.948;2023-02-28T13:39:51;103074.28;;;17.36;41.68
59190;BME280;50749;51.636;4.948;2023-02-28T13:47:41;103066.63;;;17.33;40.78
59190;BME280;50749;51.636;4.948;2023-02-28T13:50:37;103062.19;;;17.32;41.70
59190;BME280;50749;51.636;4.948;2023-02-28T13:56:01;103058.38;;;17.28;41.60
59190;BME280;50749;51.636;4.948;2023-02-28T14:01:44;103062.28;;;17.27;41.16
59190;BME280;50749;51.636;4.948;2023-02-28T14:04:41;103059.00;;;17.25;40.85
59190;BME280;50749;51.636;4.948;2023-02-28T14:07:21;103051.00;;;17.23;40.79
59190;BME280;50749;51.636;4.948;2023-02-28T14:09:59;103046.59;;;17.22;41.06
59190;BME280;50749;51.636;4.948;2023-02-28T14:15:45;103046.88;;;17.21;41.34
59190;BME280;50749;51.636;4.948;2023-02-28T14:18:20;103047.19;;;17.19;40.89
59190;BME280;50749;51.636;4.948;2023-02-28T14:20:48;103053.00;;;17.18;41.21
59190;BME280;50749;51.636;4.948;2023-02-28T14:23:21;103047.78;;;17.16;41.12
59190;BME280;50749;51.636;4.948;2023-02-28T14:25:55;103051.69;;;17.15;41.34
59190;BME280;50749;51.636;4.948;2023-02-28T14:33:58;103037.34;;;17.13;41.11
59190;BME280;50749;51.636;4.948;2023-02-28T14:36:36;103056.97;;;17.12;40.93
59190;BME280;50749;51.636;4.948;2023-02-28T14:39:14;103045.38;;;17.09;40.42
59190;BME280;50749;51.636;4.948;2023-02-28T14:41:42;103043.47;;;17.10;40.82
59190;BME280;50749;51.636;4.948;2023-02-28T14:44:16;103043.75;;;17.08;40.71
59190;BME280;50749;51.636;4.948;2023-02-28T14:46:44;103041.00;;;17.08;40.37
59190;BME280;50749;51.636;4.948;2023-02-28T14:49:26;103040.47;;;17.06;40.74
59190;BME280;50749;51.636;4.948;2023-02-28T14:52:15;103037.72;;;17.06;40.89
59190;BME280;50749;51.636;4.948;2023-02-28T14:54:45;103034.09;;;17.06;41.26
59190;BME280;50749;51.636;4.948;2023-02-28T14:57:32;103038.81;;;17.05;41.51
59190;BME280;50749;51.636;4.948;2023-02-28T15:02:30;103030.81;;;17.04;41.18
59190;BME280;50749;51.636;4.948;2023-02-28T15:04:59;103030.81;;;17.04;40.98
59190;BME280;50749;51.636;4.948;2023-02-28T15:07:26;103033.88;;;17.02;41.00
59190;BME280;50749;51.636;4.948;2023-02-28T15:10:30;103026.75;;;17.01;41.21
59190;BME280;50749;51.636;4.948;2023-02-28T15:13:12;103033.06;;;17.02;40.90
59190;BME280;50749;51.636;4.948;2023-02-28T15:16:29;103036.94;;;17.01;41.24